sensor_id;sensor_type;location;lat;lon;timestamp;temperature;humidity
4985;DHT22;2509;49.902;8.600;2023-03-23T00:00:26;14.70;99.90
4985;DHT22;2509;49.902;8.600;2023-03-23T00:03:29;14.70;99.90
4985;DHT22;2509;49.902;8.600;2023-03-23T00:06:32;14.70;99.90
4985;DHT22;2509;49.902;8.600;2023-03-23T00:09:35;14.70;99.90
4985;DHT22;2509;49.902;8.600;2023-03-23T00:12:41;14.60;99.90
4985;DHT22;2509;49.902;8.600;2023-03-23T00:15:46;14.60;99.90
4985;DHT22;2509;49.902;8.600;2023-03-23T00:18:51;14.60;99.90
4985;DHT22;2509;49.902;8.600;2023-03-23T00:21:53;14.60;99.90
4985;DHT22;2509;49.902;8.600;2023-03-23T00:24:55;14.60;99.90
4985;DHT22;2509;49.902;8.600;2023-03-23T00:27:57;14.50;99.90
4985;DHT22;2509;49.902;8.600;2023-03-23T00:31:00;14.50;99.90
4985;DHT22;2509;49.902;8.600;2023-03-23T00:34:04;14.40;99.90
4985;DHT22;2509;49.902;8.600;2023-03-23T00:37:07;14.40;99.90
4985;DHT22;2509;49.902;8.600;2023-03-23T00:40:10;14.40;99.90
4985;DHT22;2509;49.902;8.600;2023-03-23T00:43:13;14.40;99.90
4985;DHT22;2509;49.902;8.600;2023-03-23T00:46:14;14.40;99.90
4985;DHT22;2509;49.902;8.600;2023-03-23T00:49:19;14.40;99.90
4985;DHT22;2509;49.902;8.600;2023-03-23T00:52:25;14.40;99.90
4985;DHT22;2509;49.902;8.600;2023-03-23T00:55:26;14.40;99.90
4985;DHT22;2509;49.902;8.600;2023-03-23T00:58:28;14.40;99.90
4985;DHT22;2509;49.902;8.600;2023-03-23T01:01:30;14.40;99.90
4985;DHT22;2509;49.902;8.600;2023-03-23T01:04:33;14.40;99.90
4985;DHT22;2509;49.902;8.600;2023-03-23T01:07:37;14.40;99.90
4985;DHT22;2509;49.902;8.600;2023-03-23T01:10:39;14.40;99.90
4985;DHT22;2509;49.902;8.600;2023-03-23T01:13:42;14.40;99.90
4985;DHT22;2509;49.902;8.600;2023-03-23T01:16:43;14.40;99.90
4985;DHT22;2509;49.902;8.600;2023-03-23T01:19:47;14.40;99.90
4985;DHT22;2509;49.902;8.600;2023-03-23T01:22:49;14.40;99.90
4985;DHT22;2509;49.902;8.600;2023-03-23T01:25:50;14.40;99.90
4985;DHT22;2509;49.902;8.600;2023-03-23T01:28:55;14.40;99.90
4985;DHT22;2509;49.902;8.600;2023-03-23T01:31:56;14.30;99.90
4985;DHT22;2509;49.902;8.600;2023-03-23T01:35:00;14.30;99.90
4985;DHT22;2509;49.902;8.600;2023-03-23T01:38:01;14.30;99.90
4985;DHT22;2509;49.902;8.600;2023-03-23T01:41:04;14.30;99.90
4985;DHT22;2509;49.902;8.600;2023-03-23T01:44:59;14.20;99.90
4985;DHT22;2509;49.902;8.600;2023-03-23T01:47:29;14.20;99.90
4985;DHT22;2509;49.902;8.600;2023-03-23T01:50:36;14.20;99.90
4985;DHT22;2509;49.902;8.600;2023-03-23T01:53:39;14.20;99.90
4985;DHT22;2509;49.902;8.600;2023-03-23T01:56:47;14.20;99.90
4985;DHT22;2509;49.902;8.600;2023-03-23T01:59:52;14.10;99.90
4985;DHT22;2509;49.902;8.600;2023-03-23T02:02:55;14.00;99.90
4985;DHT22;2509;49.902;8.600;2023-03-23T02:05:59;13.90;99.90
4985;DHT22;2509;49.902;8.600;2023-03-23T02:09:01;13.80;99.90
4985;DHT22;2509;49.902;8.600;2023-03-23T02:12:04;13.70;99.90
4985;DHT22;2509;49.902;8.600;2023-03-23T02:15:07;13.70;99.90
4985;DHT22;2509;49.902;8.600;2023-03-23T02:18:16;13.70;99.90
4985;DHT22;2509;49.902;8.600;2023-03-23T02:25:22;13.60;99.90
4985;DHT22;2509;49.902;8.600;2023-03-23T02:28:47;13.60;99.90
4985;DHT22;2509;49.902;8.600;2023-03-23T02:32:03;13.60;99.90
4985;DHT22;2509;49.902;8.600;2023-03-23T02:35:11;13.60;99.90
4985;DHT22;2509;49.902;8.600;2023-03-23T02:38:16;13.70;99.90
4985;DHT22;2509;49.902;8.600;2023-03-23T02:41:22;13.70;99.90
4985;DHT22;2509;49.902;8.600;2023-03-23T02:44:26;13.70;99.90
4985;DHT22;2509;49.902;8.600;2023-03-23T02:47:30;13.70;99.90
4985;DHT22;2509;49.902;8.600;2023-03-23T02:50:35;13.70;99.90
4985;DHT22;2509;49.902;8.600;2023-03-23T02:53:40;13.70;99.90
4985;DHT22;2509;49.902;8.600;2023-03-23T02:56:43;13.70;99.90
4985;DHT22;2509;49.902;8.600;2023-03-23T02:59:46;13.60;99.90
4985;DHT22;2509;49.902;8.600;2023-03-23T03:02:50;13.60;99.90
4985;DHT22;2509;49.902;8.600;2023-03-23T03:06:01;13.50;99.90
4985;DHT22;2509;49.902;8.600;2023-03-23T03:09:12;13.40;99.90
4985;DHT22;2509;49.902;8.600;2023-03-23T03:12:20;13.20;99.90
4985;DHT22;2509;49.902;8.600;2023-03-23T03:15:26;13.00;99.90
4985;DHT22;2509;49.902;8.600;2023-03-23T03:18:33;13.00;99.90
4985;DHT22;2509;49.902;8.600;2023-03-23T03:21:40;12.90;99.90
4985;DHT22;2509;49.902;8.600;2023-03-23T03:24:43;12.90;99.90
4985;DHT22;2509;49.902;8.600;2023-03-23T03:27:47;12.90;99.90
4985;DHT22;2509;49.902;8.600;2023-03-23T03:30:54;12.90;99.90
4985;DHT22;2509;49.902;8.600;2023-03-23T03:33:57;12.90;99.90
4985;DHT22;2509;49.902;8.600;2023-03-23T03:37:04;12.90;99.90
4985;DHT22;2509;49.902;8.600;2023-03-23T03:40:08;12.90;99.90
4985;DHT22;2509;49.902;8.600;2023-03-23T03:43:11;13.00;99.90
4985;DHT22;2509;49.902;8.600;2023-03-23T03:46:13;13.00;99.90
4985;DHT22;2509;49.902;8.600;2023-03-23T03:49:15;13.00;99.90
4985;DHT22;2509;49.902;8.600;2023-03-23T03:52:18;12.90;99.90
4985;DHT22;2509;49.902;8.600;2023-03-23T03:55:20;12.90;99.90
4985;DHT22;2509;49.902;8.600;2023-03-23T03:58:22;12.90;99.90
4985;DHT22;2509;49.902;8.600;2023-03-23T04:01:25;12.90;99.90
4985;DHT22;2509;49.902;8.600;2023-03-23T04:04:26;12.90;99.90
4985;DHT22;2509;49.902;8.600;2023-03-23T04:07:30;12.90;99.90
4985;DHT22;2509;49.902;8.600;2023-03-23T04:10:32;12.80;99.90
4985;DHT22;2509;49.902;8.600;2023-03-23T04:13:34;12.70;99.90
4985;DHT22;2509;49.902;8.600;2023-03-23T04:16:36;12.70;99.90
4985;DHT22;2509;49.902;8.600;2023-03-23T04:19:38;12.70;99.90
4985;DHT22;2509;49.902;8.600;2023-03-23T04:22:41;12.80;99.90
4985;DHT22;2509;49.902;8.600;2023-03-23T04:25:44;12.80;99.90
4985;DHT22;2509;49.902;8.600;2023-03-23T04:28:47;12.80;99.90
4985;DHT22;2509;49.902;8.600;2023-03-23T04:31:50;12.90;99.90
4985;DHT22;2509;49.902;8.600;2023-03-23T04:34:53;12.90;99.90
4985;DHT22;2509;49.902;8.600;2023-03-23T04:37:56;12.90;99.90
4985;DHT22;2509;49.902;8.600;2023-03-23T04:40:58;12.80;99.90
4985;DHT22;2509;49.902;8.600;2023-03-23T04:44:02;12.80;99.90
4985;DHT22;2509;49.902;8.600;2023-03-23T04:47:04;12.80;99.90
4985;DHT22;2509;49.902;8.600;2023-03-23T04:50:11;12.80;99.90
4985;DHT22;2509;49.902;8.600;2023-03-23T04:53:15;12.80;99.90
4985;DHT22;2509;49.902;8.600;2023-03-23T04:56:18;12.80;99.90
4985;DHT22;2509;49.902;8.600;2023-03-23T04:59:19;12.80;99.90
4985;DHT22;2509;49.902;8.600;2023-03-23T05:02:21;12.80;99.90
4985;DHT22;2509;49.902;8.600;2023-03-23T05:05:24;12.90;99.90
4985;DHT22;2509;49.902;8.600;2023-03-23T05:08:29;12.90;99.90
4985;DHT22;2509;49.902;8.600;2023-03-23T05:11:31;12.90;99.90
4985;DHT22;2509;49.902;8.600;2023-03-23T05:14:33;12.90;99.90
4985;DHT22;2509;49.902;8.600;2023-03-23T05:17:35;13.00;99.90
4985;DHT22;2509;49.902;8.600;2023-03-23T05:20:37;13.10;99.90
4985;DHT22;2509;49.902;8.600;2023-03-23T05:23:40;13.30;99.90
4985;DHT22;2509;49.902;8.600;2023-03-23T05:26:42;13.40;99.90
4985;DHT22;2509;49.902;8.600;2023-03-23T05:29:45;13.40;99.90
4985;DHT22;2509;49.902;8.600;2023-03-23T05:32:49;13.50;99.90
4985;DHT22;2509;49.902;8.600;2023-03-23T05:35:51;13.60;99.90
4985;DHT22;2509;49.902;8.600;2023-03-23T05:38:54;13.60;99.90
4985;DHT22;2509;49.902;8.600;2023-03-23T05:41:57;13.60;99.90
4985;DHT22;2509;49.902;8.600;2023-03-23T05:44:58;13.50;99.90
4985;DHT22;2509;49.902;8.600;2023-03-23T05:48:01;13.50;99.90
4985;DHT22;2509;49.902;8.600;2023-03-23T05:51:03;13.50;99.90
4985;DHT22;2509;49.902;8.600;2023-03-23T05:54:06;13.50;99.90
4985;DHT22;2509;49.902;8.600;2023-03-23T05:57:08;13.40;99.90
4985;DHT22;2509;49.902;8.600;2023-03-23T06:00:11;13.50;99.90
4985;DHT22;2509;49.902;8.600;2023-03-23T06:03:20;13.40;99.90
4985;DHT22;2509;49.902;8.600;2023-03-23T06:06:23;13.30;99.90
4985;DHT22;2509;49.902;8.600;2023-03-23T06:09:26;13.20;99.90
4985;DHT22;2509;49.902;8.600;2023-03-23T06:12:27;13.10;99.90
4985;DHT22;2509;49.902;8.600;2023-03-23T06:15:29;13.00;99.90
4985;DHT22;2509;49.902;8.600;2023-03-23T06:18:31;13.00;99.90
4985;DHT22;2509;49.902;8.600;2023-03-23T06:21:34;12.90;99.90
4985;DHT22;2509;49.902;8.600;2023-03-23T06:24:37;12.90;99.90
4985;DHT22;2509;49.902;8.600;2023-03-23T06:27:39;12.90;99.90
4985;DHT22;2509;49.902;8.600;2023-03-23T06:30:41;12.90;99.90
4985;DHT22;2509;49.902;8.600;2023-03-23T06:33:44;12.90;99.90
4985;DHT22;2509;49.902;8.600;2023-03-23T06:36:45;12.90;99.90
4985;DHT22;2509;49.902;8.600;2023-03-23T06:39:48;12.90;99.90
4985;DHT22;2509;49.902;8.600;2023-03-23T06:42:50;12.80;99.90
4985;DHT22;2509;49.902;8.600;2023-03-23T06:45:52;12.70;99.90
4985;DHT22;2509;49.902;8.600;2023-03-23T06:48:54;12.70;99.90
4985;DHT22;2509;49.902;8.600;2023-03-23T06:51:56;12.70;99.90
4985;DHT22;2509;49.902;8.600;2023-03-23T06:54:59;12.70;99.90
4985;DHT22;2509;49.902;8.600;2023-03-23T06:58:01;12.70;99.90
4985;DHT22;2509;49.902;8.600;2023-03-23T07:01:03;12.70;99.90
4985;DHT22;2509;49.902;8.600;2023-03-23T07:04:05;12.70;99.90
4985;DHT22;2509;49.902;8.600;2023-03-23T07:07:10;12.60;99.90
4985;DHT22;2509;49.902;8.600;2023-03-23T07:10:16;12.60;99.90
4985;DHT22;2509;49.902;8.600;2023-03-23T07:13:18;12.70;99.90
4985;DHT22;2509;49.902;8.600;2023-03-23T07:16:20;12.70;99.90
4985;DHT22;2509;49.902;8.600;2023-03-23T07:19:22;12.70;99.90
4985;DHT22;2509;49.902;8.600;2023-03-23T07:22:24;12.70;99.90
4985;DHT22;2509;49.902;8.600;2023-03-23T07:25:27;12.70;99.90
4985;DHT22;2509;49.902;8.600;2023-03-23T07:28:29;12.70;99.90
4985;DHT22;2509;49.902;8.600;2023-03-23T07:31:31;12.80;99.90
4985;DHT22;2509;49.902;8.600;2023-03-23T07:34:32;12.70;99.90
4985;DHT22;2509;49.902;8.600;2023-03-23T07:37:34;12.70;99.90
4985;DHT22;2509;49.902;8.600;2023-03-23T07:40:38;12.70;99.90
4985;DHT22;2509;49.902;8.600;2023-03-23T07:43:40;12.70;99.90
4985;DHT22;2509;49.902;8.600;2023-03-23T07:46:42;12.80;99.90
4985;DHT22;2509;49.902;8.600;2023-03-23T07:49:44;12.80;99.90
4985;DHT22;2509;49.902;8.600;2023-03-23T07:52:46;12.80;99.90
4985;DHT22;2509;49.902;8.600;2023-03-23T07:55:49;12.80;99.90
4985;DHT22;2509;49.902;8.600;2023-03-23T07:58:50;12.80;99.90
4985;DHT22;2509;49.902;8.600;2023-03-23T08:01:52;12.90;99.90
4985;DHT22;2509;49.902;8.600;2023-03-23T08:04:54;12.90;99.90
4985;DHT22;2509;49.902;8.600;2023-03-23T08:07:57;12.90;99.90
4985;DHT22;2509;49.902;8.600;2023-03-23T08:11:00;12.90;99.90
4985;DHT22;2509;49.902;8.600;2023-03-23T08:14:02;13.00;99.90
4985;DHT22;2509;49.902;8.600;2023-03-23T08:17:04;13.00;99.90
4985;DHT22;2509;49.902;8.600;2023-03-23T08:20:07;13.00;99.90
4985;DHT22;2509;49.902;8.600;2023-03-23T08:23:11;13.00;99.90
4985;DHT22;2509;49.902;8.600;2023-03-23T08:26:14;13.00;99.90
4985;DHT22;2509;49.902;8.600;2023-03-23T08:29:17;13.10;99.90
4985;DHT22;2509;49.902;8.600;2023-03-23T08:32:19;13.00;99.90
4985;DHT22;2509;49.902;8.600;2023-03-23T08:35:21;13.00;99.90
4985;DHT22;2509;49.902;8.600;2023-03-23T08:38:23;13.00;99.90
4985;DHT22;2509;49.902;8.600;2023-03-23T08:41:26;13.00;99.90
4985;DHT22;2509;49.902;8.600;2023-03-23T08:44:28;13.00;99.90
4985;DHT22;2509;49.902;8.600;2023-03-23T08:47:30;13.10;99.90
4985;DHT22;2509;49.902;8.600;2023-03-23T08:50:31;13.10;99.90
4985;DHT22;2509;49.902;8.600;2023-03-23T08:53:33;13.10;99.90
4985;DHT22;2509;49.902;8.600;2023-03-23T08:56:38;13.10;99.90
4985;DHT22;2509;49.902;8.600;2023-03-23T08:59:40;13.20;99.90
4985;DHT22;2509;49.902;8.600;2023-03-23T09:02:42;13.20;99.90
4985;DHT22;2509;49.902;8.600;2023-03-23T09:05:44;13.30;99.90
4985;DHT22;2509;49.902;8.600;2023-03-23T09:08:46;13.30;99.90
4985;DHT22;2509;49.902;8.600;2023-03-23T09:11:54;13.40;99.90
4985;DHT22;2509;49.902;8.600;2023-03-23T09:14:56;13.40;99.90
4985;DHT22;2509;49.902;8.600;2023-03-23T09:17:57;13.40;99.90
4985;DHT22;2509;49.902;8.600;2023-03-23T09:21:02;13.50;99.90
4985;DHT22;2509;49.902;8.600;2023-03-23T09:24:04;13.60;99.90
4985;DHT22;2509;49.902;8.600;2023-03-23T09:27:07;13.70;99.90
4985;DHT22;2509;49.902;8.600;2023-03-23T09:30:11;13.80;99.90
4985;DHT22;2509;49.902;8.600;2023-03-23T09:33:15;13.80;99.90
4985;DHT22;2509;49.902;8.600;2023-03-23T09:36:16;13.80;99.90
4985;DHT22;2509;49.902;8.600;2023-03-23T09:39:18;13.90;99.90
4985;DHT22;2509;49.902;8.600;2023-03-23T09:42:43;14.00;99.90
4985;DHT22;2509;49.902;8.600;2023-03-23T09:45:54;14.00;99.90
4985;DHT22;2509;49.902;8.600;2023-03-23T09:49:02;14.20;99.90
4985;DHT22;2509;49.902;8.600;2023-03-23T09:52:10;14.40;99.90
4985;DHT22;2509;49.902;8.600;2023-03-23T09:55:14;14.70;99.90
4985;DHT22;2509;49.902;8.600;2023-03-23T09:58:22;14.80;99.90
4985;DHT22;2509;49.902;8.600;2023-03-23T10:01:27;14.90;99.90
4985;DHT22;2509;49.902;8.600;2023-03-23T10:04:36;15.10;99.90
4985;DHT22;2509;49.902;8.600;2023-03-23T10:07:39;15.20;99.90
4985;DHT22;2509;49.902;8.600;2023-03-23T10:10:48;15.00;99.90
4985;DHT22;2509;49.902;8.600;2023-03-23T10:14:04;14.90;99.90
4985;DHT22;2509;49.902;8.600;2023-03-23T10:17:14;14.90;99.90
4985;DHT22;2509;49.902;8.600;2023-03-23T10:20:32;14.90;99.90
4985;DHT22;2509;49.902;8.600;2023-03-23T10:23:41;14.80;99.90
4985;DHT22;2509;49.902;8.600;2023-03-23T10:26:51;14.70;99.90
4985;DHT22;2509;49.902;8.600;2023-03-23T10:30:02;14.60;99.90
4985;DHT22;2509;49.902;8.600;2023-03-23T10:33:11;14.50;99.90
4985;DHT22;2509;49.902;8.600;2023-03-23T10:36:18;14.40;99.90
4985;DHT22;2509;49.902;8.600;2023-03-23T10:39:22;14.30;99.90
4985;DHT22;2509;49.902;8.600;2023-03-23T10:42:26;14.20;99.90
4985;DHT22;2509;49.902;8.600;2023-03-23T10:45:31;14.20;99.90
4985;DHT22;2509;49.902;8.600;2023-03-23T10:48:37;14.30;99.90
4985;DHT22;2509;49.902;8.600;2023-03-23T10:51:42;14.40;99.90
4985;DHT22;2509;49.902;8.600;2023-03-23T10:54:49;14.40;99.90
4985;DHT22;2509;49.902;8.600;2023-03-23T10:58:03;14.50;99.90
4985;DHT22;2509;49.902;8.600;2023-03-23T11:01:10;14.60;99.90
4985;DHT22;2509;49.902;8.600;2023-03-23T11:04:13;14.60;99.90
4985;DHT22;2509;49.902;8.600;2023-03-23T11:07:20;14.70;99.90
4985;DHT22;2509;49.902;8.600;2023-03-23T11:10:25;14.70;99.90
4985;DHT22;2509;49.902;8.600;2023-03-23T11:13:30;14.80;99.90
4985;DHT22;2509;49.902;8.600;2023-03-23T11:16:34;14.90;99.90
4985;DHT22;2509;49.902;8.600;2023-03-23T11:19:37;14.80;99.90
4985;DHT22;2509;49.902;8.600;2023-03-23T11:22:42;14.90;99.90
4985;DHT22;2509;49.902;8.600;2023-03-23T11:25:57;14.80;99.90
4985;DHT22;2509;49.902;8.600;2023-03-23T11:29:04;14.80;99.90
4985;DHT22;2509;49.902;8.600;2023-03-23T11:32:12;14.70;99.90
4985;DHT22;2509;49.902;8.600;2023-03-23T11:35:18;14.80;99.90
4985;DHT22;2509;49.902;8.600;2023-03-23T11:38:22;14.90;99.90
4985;DHT22;2509;49.902;8.600;2023-03-23T11:41:33;14.90;99.90
4985;DHT22;2509;49.902;8.600;2023-03-23T11:44:41;14.80;99.90
4985;DHT22;2509;49.902;8.600;2023-03-23T11:47:53;14.80;99.90
4985;DHT22;2509;49.902;8.600;2023-03-23T11:50:59;14.80;99.90
4985;DHT22;2509;49.902;8.600;2023-03-23T11:54:07;14.70;99.90
4985;DHT22;2509;49.902;8.600;2023-03-23T11:57:11;14.60;99.90
4985;DHT22;2509;49.902;8.600;2023-03-23T12:00:15;14.50;99.90
4985;DHT22;2509;49.902;8.600;2023-03-23T12:06:30;14.50;99.90
4985;DHT22;2509;49.902;8.600;2023-03-23T12:09:41;14.50;99.90
4985;DHT22;2509;49.902;8.600;2023-03-23T12:12:48;14.50;99.90
4985;DHT22;2509;49.902;8.600;2023-03-23T12:15:56;14.40;99.90
4985;DHT22;2509;49.902;8.600;2023-03-23T12:19:06;14.50;99.90
4985;DHT22;2509;49.902;8.600;2023-03-23T12:22:21;14.50;99.90
4985;DHT22;2509;49.902;8.600;2023-03-23T12:29:28;14.50;99.90
4985;DHT22;2509;49.902;8.600;2023-03-23T12:32:44;14.60;99.90
4985;DHT22;2509;49.902;8.600;2023-03-23T12:36:00;14.70;99.90
4985;DHT22;2509;49.902;8.600;2023-03-23T12:39:37;15.00;99.90
4985;DHT22;2509;49.902;8.600;2023-03-23T12:42:49;15.30;99.90
4985;DHT22;2509;49.902;8.600;2023-03-23T12:46:01;15.60;99.90
4985;DHT22;2509;49.902;8.600;2023-03-23T12:49:07;15.80;99.90
4985;DHT22;2509;49.902;8.600;2023-03-23T12:52:16;16.00;99.90
4985;DHT22;2509;49.902;8.600;2023-03-23T12:55:28;16.00;99.90
4985;DHT22;2509;49.902;8.600;2023-03-23T12:58:36;16.10;99.90
4985;DHT22;2509;49.902;8.600;2023-03-23T13:01:43;16.20;99.90
4985;DHT22;2509;49.902;8.600;2023-03-23T13:04:49;16.50;99.90
4985;DHT22;2509;49.902;8.600;2023-03-23T13:07:56;16.70;99.90
4985;DHT22;2509;49.902;8.600;2023-03-23T13:11:04;16.70;99.90
4985;DHT22;2509;49.902;8.600;2023-03-23T13:14:16;16.60;99.90
4985;DHT22;2509;49.902;8.600;2023-03-23T13:17:28;16.30;99.90
4985;DHT22;2509;49.902;8.600;2023-03-23T13:20:48;16.20;99.90
4985;DHT22;2509;49.902;8.600;2023-03-23T13:23:56;16.20;99.90
4985;DHT22;2509;49.902;8.600;2023-03-23T13:27:00;16.10;99.90
4985;DHT22;2509;49.902;8.600;2023-03-23T13:30:03;15.90;99.90
4985;DHT22;2509;49.902;8.600;2023-03-23T13:33:10;15.80;99.90
4985;DHT22;2509;49.902;8.600;2023-03-23T13:36:14;15.80;99.90
4985;DHT22;2509;49.902;8.600;2023-03-23T13:39:19;15.80;99.90
4985;DHT22;2509;49.902;8.600;2023-03-23T13:42:27;15.80;99.90
4985;DHT22;2509;49.902;8.600;2023-03-23T13:45:42;15.80;99.90
4985;DHT22;2509;49.902;8.600;2023-03-23T13:48:45;15.90;99.90
4985;DHT22;2509;49.902;8.600;2023-03-23T13:52:06;15.80;99.90
4985;DHT22;2509;49.902;8.600;2023-03-23T13:55:19;15.70;99.90
4985;DHT22;2509;49.902;8.600;2023-03-23T13:58:24;15.60;99.90
4985;DHT22;2509;49.902;8.600;2023-03-23T14:01:32;15.50;99.90
4985;DHT22;2509;49.902;8.600;2023-03-23T14:04:36;15.50;99.90
4985;DHT22;2509;49.902;8.600;2023-03-23T14:07:52;15.50;99.90
4985;DHT22;2509;49.902;8.600;2023-03-23T14:10:56;15.50;99.90
4985;DHT22;2509;49.902;8.600;2023-03-23T14:14:06;15.50;99.90
4985;DHT22;2509;49.902;8.600;2023-03-23T14:17:13;15.50;99.90
4985;DHT22;2509;49.902;8.600;2023-03-23T14:20:29;15.50;99.90
4985;DHT22;2509;49.902;8.600;2023-03-23T14:23:33;15.50;99.90
4985;DHT22;2509;49.902;8.600;2023-03-23T14:26:35;15.50;99.90
4985;DHT22;2509;49.902;8.600;2023-03-23T14:29:38;15.40;99.90
4985;DHT22;2509;49.902;8.600;2023-03-23T14:32:41;15.40;99.90
4985;DHT22;2509;49.902;8.600;2023-03-23T14:35:44;15.30;99.90
4985;DHT22;2509;49.902;8.600;2023-03-23T14:38:46;15.20;99.90
4985;DHT22;2509;49.902;8.600;2023-03-23T14:41:48;15.10;99.90
4985;DHT22;2509;49.902;8.600;2023-03-23T14:44:53;15.10;99.90
4985;DHT22;2509;49.902;8.600;2023-03-23T14:47:57;15.10;99.90
4985;DHT22;2509;49.902;8.600;2023-03-23T14:51:01;15.00;99.90
4985;DHT22;2509;49.902;8.600;2023-03-23T14:54:08;15.00;99.90
4985;DHT22;2509;49.902;8.600;2023-03-23T14:57:12;15.00;99.90
4985;DHT22;2509;49.902;8.600;2023-03-23T15:00:18;15.00;99.90
4985;DHT22;2509;49.902;8.600;2023-03-23T15:03:22;14.90;99.90
4985;DHT22;2509;49.902;8.600;2023-03-23T15:06:26;15.00;99.90
4985;DHT22;2509;49.902;8.600;2023-03-23T15:09:30;14.90;99.90
4985;DHT22;2509;49.902;8.600;2023-03-23T15:12:33;14.90;99.90
4985;DHT22;2509;49.902;8.600;2023-03-23T15:15:36;14.90;99.90
4985;DHT22;2509;49.902;8.600;2023-03-23T15:18:39;14.90;99.90
4985;DHT22;2509;49.902;8.600;2023-03-23T15:21:51;14.90;99.90
4985;DHT22;2509;49.902;8.600;2023-03-23T15:25:01;14.90;99.90
4985;DHT22;2509;49.902;8.600;2023-03-23T15:28:14;14.90;99.90
4985;DHT22;2509;49.902;8.600;2023-03-23T15:31:24;14.90;99.90
4985;DHT22;2509;49.902;8.600;2023-03-23T15:34:30;15.00;99.90
4985;DHT22;2509;49.902;8.600;2023-03-23T15:37:32;15.00;99.90
4985;DHT22;2509;49.902;8.600;2023-03-23T15:40:36;15.00;99.90
4985;DHT22;2509;49.902;8.600;2023-03-23T15:43:49;15.00;99.90
4985;DHT22;2509;49.902;8.600;2023-03-23T15:47:01;15.00;99.90
4985;DHT22;2509;49.902;8.600;2023-03-23T15:50:11;15.00;99.90
4985;DHT22;2509;49.902;8.600;2023-03-23T15:53:23;15.00;99.90
4985;DHT22;2509;49.902;8.600;2023-03-23T15:56:27;15.00;99.90
4985;DHT22;2509;49.902;8.600;2023-03-23T15:59:29;14.90;99.90
4985;DHT22;2509;49.902;8.600;2023-03-23T16:02:32;14.80;99.90
4985;DHT22;2509;49.902;8.600;2023-03-23T16:05:35;14.80;99.90
4985;DHT22;2509;49.902;8.600;2023-03-23T16:08:37;14.80;99.90
4985;DHT22;2509;49.902;8.600;2023-03-23T16:11:40;14.90;99.90
4985;DHT22;2509;49.902;8.600;2023-03-23T16:14:41;14.90;99.90
4985;DHT22;2509;49.902;8.600;2023-03-23T16:17:45;14.90;99.90
4985;DHT22;2509;49.902;8.600;2023-03-23T16:20:47;14.80;99.90
4985;DHT22;2509;49.902;8.600;2023-03-23T16:23:49;14.80;99.90
4985;DHT22;2509;49.902;8.600;2023-03-23T16:26:51;14.80;99.90
4985;DHT22;2509;49.902;8.600;2023-03-23T16:29:53;14.70;99.90
4985;DHT22;2509;49.902;8.600;2023-03-23T16:32:56;14.70;99.90
4985;DHT22;2509;49.902;8.600;2023-03-23T16:35:58;14.70;99.90
4985;DHT22;2509;49.902;8.600;2023-03-23T16:39:00;14.60;99.90
4985;DHT22;2509;49.902;8.600;2023-03-23T16:42:02;14.60;99.90
4985;DHT22;2509;49.902;8.600;2023-03-23T16:45:04;14.50;99.90
4985;DHT22;2509;49.902;8.600;2023-03-23T16:48:08;14.50;99.90
4985;DHT22;2509;49.902;8.600;2023-03-23T16:51:10;14.50;99.90
4985;DHT22;2509;49.902;8.600;2023-03-23T16:54:12;14.50;99.90
4985;DHT22;2509;49.902;8.600;2023-03-23T16:57:14;14.50;99.90
4985;DHT22;2509;49.902;8.600;2023-03-23T17:00:17;14.40;99.90
4985;DHT22;2509;49.902;8.600;2023-03-23T17:03:22;14.40;99.90
4985;DHT22;2509;49.902;8.600;2023-03-23T17:06:24;14.40;99.90
4985;DHT22;2509;49.902;8.600;2023-03-23T17:09:26;14.40;99.90
4985;DHT22;2509;49.902;8.600;2023-03-23T17:12:28;14.30;99.90
4985;DHT22;2509;49.902;8.600;2023-03-23T17:15:30;14.30;99.90
4985;DHT22;2509;49.902;8.600;2023-03-23T17:18:33;14.30;99.90
4985;DHT22;2509;49.902;8.600;2023-03-23T17:21:35;14.30;99.90
4985;DHT22;2509;49.902;8.600;2023-03-23T17:24:37;14.20;99.90
4985;DHT22;2509;49.902;8.600;2023-03-23T17:27:39;14.20;99.90
4985;DHT22;2509;49.902;8.600;2023-03-23T17:30:43;14.10;99.90
4985;DHT22;2509;49.902;8.600;2023-03-23T17:33:46;14.10;99.90
4985;DHT22;2509;49.902;8.600;2023-03-23T17:36:48;14.10;99.90
4985;DHT22;2509;49.902;8.600;2023-03-23T17:39:49;14.10;99.90
4985;DHT22;2509;49.902;8.600;2023-03-23T17:42:51;14.10;99.90
4985;DHT22;2509;49.902;8.600;2023-03-23T17:45:53;14.00;99.90
4985;DHT22;2509;49.902;8.600;2023-03-23T17:48:56;14.00;99.90
4985;DHT22;2509;49.902;8.600;2023-03-23T17:51:58;13.90;99.90
4985;DHT22;2509;49.902;8.600;2023-03-23T17:55:00;13.90;99.90
4985;DHT22;2509;49.902;8.600;2023-03-23T17:58:02;13.90;99.90
4985;DHT22;2509;49.902;8.600;2023-03-23T18:01:04;13.80;99.90
4985;DHT22;2509;49.902;8.600;2023-03-23T18:04:07;13.80;99.90
4985;DHT22;2509;49.902;8.600;2023-03-23T18:07:09;13.80;99.90
4985;DHT22;2509;49.902;8.600;2023-03-23T18:10:11;13.80;99.90
4985;DHT22;2509;49.902;8.600;2023-03-23T18:13:13;13.70;99.90
4985;DHT22;2509;49.902;8.600;2023-03-23T18:16:15;13.70;99.90
4985;DHT22;2509;49.902;8.600;2023-03-23T18:19:18;13.70;99.90
4985;DHT22;2509;49.902;8.600;2023-03-23T18:22:20;13.70;99.90
4985;DHT22;2509;49.902;8.600;2023-03-23T18:25:22;13.70;99.90
4985;DHT22;2509;49.902;8.600;2023-03-23T18:28:24;13.70;99.90
4985;DHT22;2509;49.902;8.600;2023-03-23T18:31:27;13.70;99.90
4985;DHT22;2509;49.902;8.600;2023-03-23T18:34:30;13.70;99.90
4985;DHT22;2509;49.902;8.600;2023-03-23T18:37:32;13.70;99.90
4985;DHT22;2509;49.902;8.600;2023-03-23T18:40:34;13.70;99.90
4985;DHT22;2509;49.902;8.600;2023-03-23T18:43:36;13.70;99.90
4985;DHT22;2509;49.902;8.600;2023-03-23T18:46:38;13.70;99.90
4985;DHT22;2509;49.902;8.600;2023-03-23T18:49:42;13.70;99.90
4985;DHT22;2509;49.902;8.600;2023-03-23T18:52:45;13.80;99.90
4985;DHT22;2509;49.902;8.600;2023-03-23T18:55:48;13.80;99.90
4985;DHT22;2509;49.902;8.600;2023-03-23T18:58:51;13.90;99.90
4985;DHT22;2509;49.902;8.600;2023-03-23T19:01:53;13.90;99.90
4985;DHT22;2509;49.902;8.600;2023-03-23T19:04:56;13.90;99.90
4985;DHT22;2509;49.902;8.600;2023-03-23T19:07:58;14.00;99.90
4985;DHT22;2509;49.902;8.600;2023-03-23T19:11:02;14.00;99.90
4985;DHT22;2509;49.902;8.600;2023-03-23T19:14:04;14.00;99.90
4985;DHT22;2509;49.902;8.600;2023-03-23T19:17:07;14.00;99.90
4985;DHT22;2509;49.902;8.600;2023-03-23T19:20:10;14.00;99.90
4985;DHT22;2509;49.902;8.600;2023-03-23T19:23:12;14.00;99.90
4985;DHT22;2509;49.902;8.600;2023-03-23T19:26:22;14.00;99.90
4985;DHT22;2509;49.902;8.600;2023-03-23T19:29:25;14.00;99.90
4985;DHT22;2509;49.902;8.600;2023-03-23T19:32:27;14.00;99.90
4985;DHT22;2509;49.902;8.600;2023-03-23T19:35:31;14.00;99.90
4985;DHT22;2509;49.902;8.600;2023-03-23T19:38:33;14.00;99.90
4985;DHT22;2509;49.902;8.600;2023-03-23T19:41:35;14.00;99.90
4985;DHT22;2509;49.902;8.600;2023-03-23T19:44:37;14.00;99.90
4985;DHT22;2509;49.902;8.600;2023-03-23T19:47:39;14.00;99.90
4985;DHT22;2509;49.902;8.600;2023-03-23T19:50:42;14.00;99.90
4985;DHT22;2509;49.902;8.600;2023-03-23T19:53:45;14.00;99.90
4985;DHT22;2509;49.902;8.600;2023-03-23T19:56:47;13.90;99.90
4985;DHT22;2509;49.902;8.600;2023-03-23T19:59:49;13.90;99.90
4985;DHT22;2509;49.902;8.600;2023-03-23T20:02:51;13.90;99.90
4985;DHT22;2509;49.902;8.600;2023-03-23T20:05:59;13.90;99.90
4985;DHT22;2509;49.902;8.600;2023-03-23T20:09:03;13.90;99.90
4985;DHT22;2509;49.902;8.600;2023-03-23T20:12:06;13.80;99.90
4985;DHT22;2509;49.902;8.600;2023-03-23T20:15:08;13.80;99.90